createdAt,value
2019-04-23T00:01:35.359Z,5.78
2019-04-23T00:04:05.726Z,6.53
2019-04-23T00:06:34.329Z,4.72
2019-04-23T00:09:20.377Z,7.15
2019-04-23T00:11:35.696Z,4.60
2019-04-23T00:14:05.741Z,4.87
2019-04-23T00:16:36.324Z,7.53
2019-04-23T00:18:59.360Z,5.40
2019-04-23T00:21:36.403Z,7.45
2019-04-23T00:26:37.483Z,5.03
2019-04-23T00:29:06.670Z,5.67
2019-04-23T00:31:32.889Z,4.25
2019-04-23T00:33:57.347Z,5.78
2019-04-23T00:36:32.448Z,6.28
2019-04-23T00:38:50.183Z,7.65
2019-04-23T00:41:29.665Z,5.08
2019-04-23T00:43:59.487Z,5.15
2019-04-23T00:46:25.164Z,4.55
2019-04-23T00:49:00.800Z,5.95
2019-04-23T00:51:16.815Z,7.58
2019-04-23T00:53:46.712Z,6.95
2019-04-23T00:58:47.741Z,8.38
2019-04-23T01:01:18.414Z,7.55
2019-04-23T01:03:42.208Z,9.83
2019-04-23T01:06:14.366Z,7.72
2019-04-23T01:08:55.230Z,5.45
2019-04-23T01:11:13.390Z,8.98
2019-04-23T01:16:10.008Z,4.53
2019-04-23T01:18:51.456Z,5.50
2019-04-23T01:21:03.457Z,6.70
2019-04-23T01:23:40.447Z,7.60
2019-04-23T01:26:20.925Z,5.60
2019-04-23T01:28:59.873Z,7.45
2019-04-23T01:33:53.310Z,8.25
2019-04-23T01:36:25.277Z,9.73
2019-04-23T01:38:58.514Z,5.00
2019-04-23T01:41:25.272Z,7.10
2019-04-23T01:43:46.117Z,5.50
2019-04-23T01:46:22.039Z,6.03
2019-04-23T01:48:46.889Z,6.53
2019-04-23T01:51:08.209Z,10.03
2019-04-23T01:53:38.665Z,8.25
2019-04-23T01:56:14.416Z,7.58
2019-04-23T02:01:11.576Z,6.37
2019-04-23T02:03:41.141Z,12.13
2019-04-23T02:06:14.826Z,5.35
2019-04-23T02:08:40.263Z,6.95
2019-04-23T02:11:10.358Z,7.22
2019-04-23T02:13:38.327Z,5.03
2019-04-23T02:16:05.018Z,5.75
2019-04-23T02:18:36.055Z,7.12
2019-04-23T02:21:07.856Z,5.75
2019-04-23T02:23:35.881Z,5.87
2019-04-23T02:26:02.975Z,6.65
2019-04-23T02:28:44.639Z,5.95
2019-04-23T02:36:07.681Z,6.03
2019-04-23T02:41:08.548Z,7.30
2019-04-23T02:43:29.825Z,6.47
2019-04-23T02:46:05.431Z,4.87
2019-04-23T02:48:30.743Z,4.78
2019-04-23T02:50:57.375Z,6.60
2019-04-23T02:56:24.242Z,6.40
2019-04-23T03:05:56.867Z,5.12
2019-04-23T03:08:26.755Z,5.92
2019-04-23T03:10:59.882Z,6.15
2019-04-23T03:18:56.554Z,5.35
2019-04-23T03:21:26.187Z,7.00
2019-04-23T03:24:15.066Z,4.33
2019-04-23T03:34:30.247Z,7.35
2019-04-23T03:42:09.851Z,8.20
2019-04-23T03:46:16.216Z,7.80
2019-04-23T03:48:41.321Z,6.40
2019-04-23T03:51:03.355Z,7.35
2019-04-23T03:53:42.849Z,8.38
2019-04-23T04:01:07.767Z,7.45
2019-04-23T04:04:17.012Z,6.45
2019-04-23T04:06:11.527Z,5.60
2019-04-23T04:08:25.919Z,6.10
2019-04-23T04:11:02.835Z,7.05
2019-04-23T04:16:00.844Z,7.45
2019-04-23T04:21:02.850Z,5.65
2019-04-23T04:23:37.743Z,8.13
2019-04-23T04:30:49.454Z,9.13
2019-04-23T04:35:58.323Z,9.10
2019-04-23T04:40:57.254Z,7.85
2019-04-23T04:43:32.137Z,6.17
2019-04-23T04:46:04.815Z,10.23
2019-04-23T04:48:19.741Z,6.92
2019-04-23T04:50:53.004Z,7.45
2019-04-23T04:53:35.757Z,6.80
2019-04-23T04:58:21.177Z,9.18
2019-04-23T05:06:04.950Z,8.58
2019-04-23T05:08:20.829Z,10.05
2019-04-23T05:11:05.637Z,7.15
2019-04-23T05:15:45.129Z,6.15
2019-04-23T05:20:52.943Z,9.08
2019-04-23T05:23:22.959Z,7.80
2019-04-23T05:25:47.289Z,9.65
2019-04-23T05:28:36.652Z,10.98
2019-04-23T05:31:02.332Z,7.60
2019-04-23T05:33:18.535Z,10.00
2019-04-23T05:43:12.393Z,10.08
2019-04-23T05:45:42.951Z,7.12
2019-04-23T05:48:13.239Z,9.80
2019-04-23T05:58:08.567Z,8.38
2019-04-23T06:03:12.002Z,11.48
2019-04-23T06:05:38.739Z,9.55
2019-04-23T06:08:12.076Z,11.03
2019-04-23T06:10:40.686Z,9.05
2019-04-23T06:13:08.045Z,10.80
2019-04-23T06:18:08.985Z,12.63
2019-04-23T06:20:35.254Z,10.98
2019-04-23T06:23:05.745Z,11.33
2019-04-23T06:25:49.471Z,8.83
2019-04-23T06:28:05.981Z,8.85
2019-04-23T06:30:42.194Z,7.53
2019-04-23T06:33:07.678Z,8.68
2019-04-23T06:35:34.057Z,8.85
2019-04-23T06:38:26.148Z,13.83
2019-04-23T06:40:33.871Z,11.43
2019-04-23T06:43:04.685Z,10.58
2019-04-23T06:45:33.859Z,12.53
2019-04-23T06:48:11.902Z,10.95
2019-04-23T06:50:35.422Z,11.53
2019-04-23T06:52:54.472Z,15.53
2019-04-23T06:58:08.386Z,11.30
2019-04-23T07:00:34.263Z,10.23
2019-04-23T07:03:08.424Z,13.03
2019-04-23T07:06:06.976Z,10.78
2019-04-23T07:08:34.547Z,7.95
2019-04-23T07:11:02.409Z,12.35
2019-04-23T07:13:29.625Z,13.15
2019-04-23T07:15:53.709Z,11.10
2019-04-23T07:18:18.141Z,12.25
2019-04-23T07:20:50.929Z,8.70
2019-04-23T07:23:25.489Z,9.40
2019-04-23T07:25:48.457Z,12.93
2019-04-23T07:28:18.009Z,12.80
2019-04-23T07:30:55.995Z,8.98
2019-04-23T07:33:19.171Z,11.25
2019-04-23T07:35:45.269Z,11.65
2019-04-23T07:38:44.254Z,10.85
2019-04-23T07:41:09.725Z,14.33
2019-04-23T07:43:41.063Z,12.25
2019-04-23T07:46:29.706Z,12.98
2019-04-23T07:48:47.700Z,17.23
2019-04-23T07:51:22.793Z,11.10
2019-04-23T07:53:53.561Z,13.40
2019-04-23T07:56:19.374Z,10.98
2019-04-23T07:58:39.388Z,14.25
2019-04-23T08:01:14.200Z,11.65
2019-04-23T08:03:43.929Z,9.50
2019-04-23T08:08:36.462Z,12.07
2019-04-23T08:11:40.386Z,12.95
2019-04-23T08:13:47.356Z,10.72
2019-04-23T08:16:24.707Z,12.18
2019-04-23T08:18:49.792Z,13.55
2019-04-23T08:21:25.774Z,10.05
2019-04-23T08:26:34.353Z,10.18
2019-04-23T08:31:33.639Z,10.32
2019-04-23T08:34:05.773Z,11.88
2019-04-23T08:36:27.813Z,13.50
2019-04-23T08:38:50.893Z,10.48
2019-04-23T08:44:21.454Z,10.78
2019-04-23T08:47:50.754Z,9.58
2019-04-23T08:49:22.224Z,12.85
2019-04-23T08:54:29.766Z,9.73
2019-04-23T08:56:48.967Z,11.20
2019-04-23T08:59:17.427Z,11.95
2019-04-23T09:01:59.440Z,13.25
2019-04-23T09:04:09.033Z,11.43
2019-04-23T09:06:35.094Z,9.70
2019-04-23T09:09:16.149Z,10.18
2019-04-23T09:11:45.999Z,10.98
2019-04-23T09:14:08.833Z,10.98
2019-04-23T09:16:37.804Z,12.40
2019-04-23T09:19:08.892Z,10.05
2019-04-23T09:21:37.409Z,16.07
2019-04-23T09:24:07.283Z,11.30
2019-04-23T09:26:33.184Z,18.65
2019-04-23T09:34:07.529Z,9.48
2019-04-23T09:37:00.313Z,26.37
2019-04-23T09:39:34.801Z,12.90
2019-04-23T09:42:24.603Z,13.58
2019-04-23T09:47:51.859Z,11.63
2019-04-23T09:50:15.534Z,11.45
2019-04-23T09:52:50.602Z,10.28
2019-04-23T09:55:24.609Z,14.30
2019-04-23T09:57:44.672Z,12.20
2019-04-23T10:00:23.067Z,10.95
2019-04-23T10:02:29.143Z,14.38
2019-04-23T10:04:56.893Z,10.43
2019-04-23T10:07:25.175Z,11.73
2019-04-23T10:09:40.622Z,10.63
2019-04-23T10:12:09.299Z,11.73
2019-04-23T10:14:36.708Z,11.78
2019-04-23T10:17:04.274Z,13.40
2019-04-23T10:19:32.820Z,13.35
2019-04-23T10:21:59.924Z,15.00
2019-04-23T10:24:27.951Z,9.63
2019-04-23T10:26:55.814Z,11.78
2019-04-23T10:29:25.751Z,12.88
2019-04-23T10:31:53.660Z,17.45
2019-04-23T10:34:21.186Z,12.20
2019-04-23T10:36:49.481Z,14.65
2019-04-23T10:39:25.595Z,18.30
2019-04-23T10:41:54.412Z,45.20
2019-04-23T10:44:23.520Z,22.87
2019-04-23T10:47:17.761Z,13.00
2019-04-23T10:49:59.754Z,13.40
2019-04-23T10:52:28.097Z,16.32
2019-04-23T10:57:23.180Z,10.50
2019-04-23T10:59:50.360Z,16.17
2019-04-23T11:02:39.146Z,11.28
2019-04-23T11:09:55.693Z,15.68
2019-04-23T11:15:11.265Z,10.80
2019-04-23T11:17:33.144Z,15.23
2019-04-23T11:20:07.718Z,11.60
2019-04-23T11:25:20.403Z,12.18
2019-04-23T11:27:27.986Z,13.35
2019-04-23T11:30:03.970Z,12.47
2019-04-23T11:32:41.215Z,9.93
2019-04-23T11:37:23.146Z,12.05
2019-04-23T11:39:49.565Z,14.83
2019-04-23T11:44:45.881Z,9.68
2019-04-23T11:47:42.176Z,11.28
2019-04-23T11:52:17.898Z,13.13
2019-04-23T11:54:38.991Z,12.78
2019-04-23T12:00:06.147Z,15.88
2019-04-23T12:02:05.387Z,12.40
2019-04-23T12:04:57.419Z,11.08
2019-04-23T12:07:32.856Z,14.45
2019-04-23T12:10:14.428Z,12.30
2019-04-23T12:15:13.295Z,15.60
2019-04-23T12:20:01.397Z,13.95
2019-04-23T12:22:29.814Z,14.40
2019-04-23T12:27:30.088Z,11.28
2019-04-23T12:32:48.070Z,21.65
2019-04-23T12:35:16.209Z,15.65
2019-04-23T12:37:36.476Z,21.37
2019-04-23T12:45:16.827Z,12.23
2019-04-23T12:50:18.991Z,15.03
2019-04-23T12:52:35.905Z,13.98
2019-04-23T12:55:06.946Z,14.07
2019-04-23T12:57:35.580Z,11.70
2019-04-23T12:59:59.311Z,11.33
2019-04-23T13:02:40.274Z,11.05
2019-04-23T13:07:26.385Z,16.48
2019-04-23T13:10:01.507Z,15.88
2019-04-23T13:12:38.190Z,12.10
2019-04-23T13:15:03.650Z,13.62
2019-04-23T13:20:00.680Z,12.80
2019-04-23T13:22:31.559Z,14.63
2019-04-23T13:24:54.075Z,20.02
2019-04-23T13:27:30.688Z,13.62
2019-04-23T13:32:21.607Z,12.65
2019-04-23T13:34:58.869Z,14.43
2019-04-23T13:37:33.639Z,13.18
2019-04-23T13:39:48.789Z,16.20
2019-04-23T13:42:22.769Z,16.12
2019-04-23T13:44:49.494Z,13.85
2019-04-23T13:47:31.587Z,11.45
2019-04-23T13:49:54.704Z,14.87
2019-04-23T13:52:43.215Z,13.72
2019-04-23T13:55:04.376Z,13.78
2019-04-23T14:02:17.523Z,23.35
2019-04-23T14:05:10.448Z,14.40
2019-04-23T14:07:34.659Z,14.70
2019-04-23T14:10:14.852Z,15.05
2019-04-23T14:12:23.969Z,16.27
2019-04-23T14:15:03.719Z,16.23
2019-04-23T14:17:35.698Z,18.10
2019-04-23T14:19:53.481Z,15.18
2019-04-23T14:25:08.059Z,15.75
2019-04-23T14:27:26.873Z,16.55
2019-04-23T14:29:56.501Z,18.67
2019-04-23T14:32:22.451Z,18.73
2019-04-23T14:35:04.614Z,20.35
2019-04-23T14:37:22.148Z,13.43
2019-04-23T14:39:45.515Z,23.32
2019-04-23T14:44:56.144Z,17.80
2019-04-23T14:47:23.620Z,28.00
2019-04-23T14:50:12.051Z,21.00
2019-04-23T14:52:21.682Z,22.95
2019-04-23T14:55:25.286Z,20.45
2019-04-23T14:59:48.130Z,21.40
2019-04-23T15:04:47.887Z,18.90
2019-04-23T15:07:18.856Z,25.95
2019-04-23T15:12:16.003Z,15.88
2019-04-23T15:14:56.197Z,17.07
2019-04-23T15:17:12.629Z,17.67
2019-04-23T15:24:52.397Z,26.75
2019-04-23T15:26:58.871Z,19.40
2019-04-23T15:28:00.813Z,20.40
2019-04-23T15:29:33.663Z,18.90
2019-04-23T15:34:45.429Z,22.45
2019-04-23T15:37:20.426Z,21.85
2019-04-23T15:42:26.600Z,16.95
2019-04-23T15:44:36.099Z,18.52
2019-04-23T15:47:10.239Z,17.57
2019-04-23T15:49:37.567Z,25.25
2019-04-23T15:52:06.750Z,20.88
2019-04-23T15:57:05.583Z,17.45
2019-04-23T15:59:38.689Z,13.43
2019-04-23T16:01:41.934Z,22.60
2019-04-23T16:04:03.299Z,16.37
2019-04-23T16:06:36.883Z,23.70
2019-04-23T16:09:21.341Z,19.57
2019-04-23T16:11:51.784Z,22.67
2019-04-23T16:14:31.297Z,12.73
2019-04-23T16:19:59.684Z,13.65
2019-04-23T16:24:25.199Z,17.67
2019-04-23T16:27:07.487Z,18.42
2019-04-23T16:29:48.725Z,17.95
2019-04-23T16:32:08.537Z,13.65
2019-04-23T16:34:34.239Z,35.35
2019-04-23T16:36:59.471Z,18.65
2019-04-23T16:39:30.754Z,21.07
2019-04-23T16:44:39.351Z,16.85
2019-04-23T16:47:04.563Z,21.17
2019-04-23T16:52:01.378Z,19.75
2019-04-23T16:54:36.879Z,16.80
2019-04-23T16:59:24.569Z,14.03
2019-04-23T17:02:03.547Z,18.92
2019-04-23T17:04:34.541Z,21.95
2019-04-23T17:06:57.556Z,20.40
2019-04-23T17:09:28.362Z,12.90
2019-04-23T17:12:07.679Z,14.10
2019-04-23T17:14:23.293Z,14.45
2019-04-23T17:16:59.786Z,18.48
2019-04-23T17:19:24.177Z,16.00
2019-04-23T17:21:53.405Z,21.30
2019-04-23T17:27:15.187Z,13.40
2019-04-23T17:29:26.911Z,16.30
2019-04-23T17:31:53.768Z,13.55
2019-04-23T17:34:24.074Z,20.68
2019-04-23T17:44:42.432Z,14.90
2019-04-23T17:47:14.020Z,11.95
2019-04-23T17:49:48.232Z,17.52
2019-04-23T17:52:14.773Z,17.75
2019-04-23T17:54:43.366Z,15.75
2019-04-23T17:57:15.004Z,17.35
2019-04-23T18:00:08.694Z,14.45
2019-04-23T18:07:32.225Z,16.48
2019-04-23T18:09:58.342Z,18.52
2019-04-23T18:12:31.036Z,23.80
2019-04-23T18:14:47.151Z,16.20
2019-04-23T18:17:24.266Z,12.68
2019-04-23T18:19:54.195Z,12.30
2019-04-23T18:22:22.233Z,15.58
2019-04-23T18:25:09.166Z,19.87
2019-04-23T18:27:50.707Z,21.65
2019-04-23T18:37:56.464Z,17.12
2019-04-23T18:40:28.728Z,14.85
2019-04-23T18:43:07.465Z,16.02
2019-04-23T18:45:31.972Z,18.52
2019-04-23T18:48:11.440Z,15.90
2019-04-23T18:50:29.383Z,17.52
2019-04-23T18:52:58.436Z,14.80
2019-04-23T18:55:37.042Z,17.60
2019-04-23T18:57:55.285Z,17.07
2019-04-23T19:00:24.067Z,13.60
2019-04-23T19:08:01.474Z,15.20
2019-04-23T19:13:09.660Z,10.80
2019-04-23T19:15:43.449Z,14.65
2019-04-23T19:18:00.401Z,16.42
2019-04-23T19:23:08.235Z,15.23
2019-04-23T19:25:31.881Z,14.78
2019-04-23T19:28:26.742Z,14.98
2019-04-23T19:33:32.801Z,15.20
2019-04-23T19:36:01.528Z,13.03
2019-04-23T19:40:49.300Z,14.78
2019-04-23T19:43:05.775Z,14.28
2019-04-23T19:45:49.759Z,15.93
2019-04-23T19:48:08.397Z,13.98
2019-04-23T19:50:48.978Z,13.53
2019-04-23T19:53:25.993Z,14.35
2019-04-23T19:55:49.822Z,17.12
2019-04-23T19:58:15.710Z,15.78
2019-04-23T20:00:55.290Z,15.30
2019-04-23T20:03:17.103Z,12.70
2019-04-23T20:05:41.070Z,15.85
2019-04-23T20:08:13.302Z,14.90
2019-04-23T20:10:39.564Z,17.10
2019-04-23T20:13:06.294Z,15.35
2019-04-23T20:15:53.552Z,10.72
2019-04-23T20:18:00.935Z,14.53
2019-04-23T20:20:42.162Z,13.53
2019-04-23T20:23:13.342Z,17.32
2019-04-23T20:26:02.728Z,11.63
2019-04-23T20:28:27.392Z,12.30
2019-04-23T20:31:16.297Z,12.90
2019-04-23T20:36:07.047Z,11.55
2019-04-23T20:41:03.465Z,15.25
2019-04-23T20:43:32.461Z,10.38
2019-04-23T20:45:58.949Z,13.40
2019-04-23T20:48:37.192Z,14.10
2019-04-23T20:50:51.912Z,16.80
2019-04-23T20:53:28.837Z,13.65
2019-04-23T20:56:01.616Z,16.75
2019-04-23T20:58:20.940Z,15.88
2019-04-23T21:01:18.882Z,15.30
2019-04-23T21:06:10.404Z,15.98
2019-04-23T21:08:52.362Z,14.55
2019-04-23T21:11:01.444Z,14.65
2019-04-23T21:13:51.399Z,14.93
2019-04-23T21:15:58.345Z,16.62
2019-04-23T21:20:56.297Z,15.50
2019-04-23T21:25:52.515Z,15.30
2019-04-23T21:28:40.043Z,18.65
2019-04-23T21:31:08.701Z,14.38
2019-04-23T21:33:50.786Z,15.85
2019-04-23T21:38:50.537Z,11.70
2019-04-23T21:43:59.221Z,16.42
2019-04-23T21:46:16.009Z,10.85
2019-04-23T21:48:57.916Z,15.10
2019-04-23T21:51:09.495Z,21.37
2019-04-23T21:53:40.600Z,15.98
2019-04-23T21:58:49.120Z,14.90
2019-04-23T22:04:03.896Z,12.43
2019-04-23T22:06:25.524Z,20.90
2019-04-23T22:08:52.508Z,12.10
2019-04-23T22:11:32.726Z,13.88
2019-04-23T22:16:14.564Z,13.75
2019-04-23T22:18:58.593Z,11.03
2019-04-23T22:21:15.689Z,16.45
2019-04-23T22:23:52.581Z,16.45
2019-04-23T22:26:13.460Z,15.90
2019-04-23T22:28:52.781Z,13.80
2019-04-23T22:31:15.174Z,14.00
2019-04-23T22:33:46.555Z,16.07
2019-04-23T22:36:09.618Z,15.00
2019-04-23T22:38:39.496Z,19.52
2019-04-23T22:41:01.902Z,17.35
2019-04-23T22:43:43.305Z,11.93
2019-04-23T22:48:34.207Z,13.32
2019-04-23T22:51:22.870Z,13.13
2019-04-23T22:53:25.498Z,16.10
2019-04-23T22:58:32.482Z,20.25
2019-04-23T23:01:14.696Z,14.15
2019-04-23T23:03:43.769Z,18.55
2019-04-23T23:08:52.209Z,14.20
2019-04-23T23:11:05.777Z,14.38
2019-04-23T23:13:47.329Z,14.83
2019-04-23T23:16:16.434Z,14.40
2019-04-23T23:18:52.393Z,14.80
2019-04-23T23:26:00.767Z,16.50
2019-04-23T23:28:31.378Z,14.38
2019-04-23T23:31:04.045Z,15.50
2019-04-23T23:33:23.067Z,18.25
2019-04-23T23:36:00.104Z,13.60
2019-04-23T23:38:41.798Z,14.35
2019-04-23T23:40:57.192Z,20.68
2019-04-23T23:45:55.377Z,16.77
2019-04-23T23:48:18.676Z,15.40
2019-04-23T23:50:54.704Z,16.57
2019-04-23T23:53:32.223Z,18.32
2019-04-23T23:55:48.733Z,15.95
2019-04-23T23:58:23.532Z,10.80
